This is the latest recevied weather packets stored in our database for station/object JH0KSP-13. If no packets are shown the sender has not sent any weather packets the latest 1 day(s).
| Time | Temp. | Humidity | Pressure | Rain* | Wind** | Luminosity | Snow |
|---|---|---|---|---|---|---|---|
| 1778039216 | 17.22° C | 67% | 1021 hPa | 0 mm | - | - | - |
| 1778038016 | 17.22° C | 67% | 1021.1 hPa | 0 mm | - | - | - |
| 1778036815 | 17.22° C | 69% | 1021.2 hPa | 0 mm | - | - | - |
| 1778035208 | 17.22° C | 73% | 1021.5 hPa | 0 mm | - | - | - |
| 1778034416 | 16.11° C | 70% | 1021.5 hPa | 0 mm | - | - | - |
| 1778033216 | 16.11° C | 71% | 1021.9 hPa | 0 mm | - | - | - |
| 1778031608 | 15° C | 77% | 1022.3 hPa | 0 mm | - | - | - |
| 1778030816 | 15° C | 80% | 1022.5 hPa | 0 mm | - | - | - |
| 1778030408 | 15° C | 80% | 1022.5 hPa | 0 mm | - | - | - |
| 1778029616 | 13.89° C | 80% | 1022.8 hPa | 0 mm | - | - | - |
| 1778028417 | 13.89° C | 85% | 1022.9 hPa | 0 mm | - | - | - |
| 1778027215 | 12.78° C | 85% | 1023 hPa | 0 mm | - | - | - |
| 1778026209 | 12.78° C | 86% | 1023.1 hPa | 0 mm | - | - | - |
| 1778017616 | 10° C | 96% | 1023.4 hPa | 0 mm | - | - | - |
| 1778016417 | 11.11° C | 96% | 1023.5 hPa | 0 mm | - | - | - |
| 1778014809 | 10° C | 96% | 1023.5 hPa | 0 mm | - | - | - |
| 1778010609 | 10° C | 95% | 1023.3 hPa | 0 mm | - | - | - |
| 1778010009 | 10° C | 95% | 1023.2 hPa | 0 mm | - | - | - |
| 1778009415 | 10° C | 96% | 1023 hPa | 0 mm | - | - | - |
| 1778009216 | 10° C | 96% | 1023 hPa | 0 mm | - | - | - |
| 1778008017 | 10° C | 95% | 1023.2 hPa | 0 mm | - | - | - |
* Rain latest hour (hover to see other rain measurements)
** Current wind speed in m/s (hover to see current wind gust speed)